sensor_id;sensor_type;location;lat;lon;timestamp;pressure;altitude;pressure_sealevel;temperature;humidity
40992;BME280;29633;49.168;9.848;2023-04-20T00:00:36;96829.94;;;9.91;60.78
40992;BME280;29633;49.168;9.848;2023-04-20T00:03:02;96837.09;;;9.87;60.82
40992;BME280;29633;49.168;9.848;2023-04-20T00:05:28;96826.38;;;9.81;61.07
40992;BME280;29633;49.168;9.848;2023-04-20T00:07:56;96829.22;;;9.78;60.95
40992;BME280;29633;49.168;9.848;2023-04-20T00:10:25;96827.09;;;9.72;60.84
40992;BME280;29633;49.168;9.848;2023-04-20T00:12:51;96817.31;;;9.64;61.13
40992;BME280;29633;49.168;9.848;2023-04-20T00:15:16;96811.66;;;9.59;61.00
40992;BME280;29633;49.168;9.848;2023-04-20T00:17:42;96809.06;;;9.59;60.97
40992;BME280;29633;49.168;9.848;2023-04-20T00:20:09;96809.19;;;9.58;61.04
40992;BME280;29633;49.168;9.848;2023-04-20T00:22:35;96808.38;;;9.57;60.91
40992;BME280;29633;49.168;9.848;2023-04-20T00:25:01;96800.13;;;9.52;60.80
40992;BME280;29633;49.168;9.848;2023-04-20T00:27:27;96797.78;;;9.49;61.00
40992;BME280;29633;49.168;9.848;2023-04-20T00:29:53;96807.44;;;9.47;61.11
40992;BME280;29633;49.168;9.848;2023-04-20T00:32:18;96801.66;;;9.44;61.06
40992;BME280;29633;49.168;9.848;2023-04-20T00:34:44;96795.88;;;9.40;61.08
40992;BME280;29633;49.168;9.848;2023-04-20T00:37:10;96788.69;;;9.32;61.20
40992;BME280;29633;49.168;9.848;2023-04-20T00:39:36;96786.22;;;9.31;61.03
40992;BME280;29633;49.168;9.848;2023-04-20T00:42:05;96792.91;;;9.22;60.87
40992;BME280;29633;49.168;9.848;2023-04-20T00:44:32;96777.00;;;9.16;61.16
40992;BME280;29633;49.168;9.848;2023-04-20T00:46:58;96782.41;;;9.13;61.04
40992;BME280;29633;49.168;9.848;2023-04-20T00:49:25;96784.53;;;9.08;61.10
40992;BME280;29633;49.168;9.848;2023-04-20T00:51:52;96771.72;;;9.06;61.18
40992;BME280;29633;49.168;9.848;2023-04-20T00:54:18;96772.78;;;9.04;61.15
40992;BME280;29633;49.168;9.848;2023-04-20T00:56:44;96766.88;;;9.02;60.88
40992;BME280;29633;49.168;9.848;2023-04-20T00:59:10;96765.13;;;9.02;61.05
40992;BME280;29633;49.168;9.848;2023-04-20T01:01:35;96761.84;;;9.00;61.03
40992;BME280;29633;49.168;9.848;2023-04-20T01:04:01;96762.16;;;8.96;61.06
40992;BME280;29633;49.168;9.848;2023-04-20T01:06:27;96757.09;;;8.94;61.07
40992;BME280;29633;49.168;9.848;2023-04-20T01:08:53;96750.72;;;8.87;61.13
40992;BME280;29633;49.168;9.848;2023-04-20T01:11:18;96746.94;;;8.80;61.24
40992;BME280;29633;49.168;9.848;2023-04-20T01:13:44;96746.81;;;8.70;61.16
40992;BME280;29633;49.168;9.848;2023-04-20T01:16:10;96757.97;;;8.71;61.37
40992;BME280;29633;49.168;9.848;2023-04-20T01:18:46;96752.09;;;8.69;61.38
40992;BME280;29633;49.168;9.848;2023-04-20T01:21:13;96753.13;;;8.66;61.24
40992;BME280;29633;49.168;9.848;2023-04-20T01:23:39;96760.19;;;8.64;61.38
40992;BME280;29633;49.168;9.848;2023-04-20T01:26:09;96757.09;;;8.59;61.39
40992;BME280;29633;49.168;9.848;2023-04-20T01:28:35;96751.94;;;8.59;61.41
40992;BME280;29633;49.168;9.848;2023-04-20T01:31:03;96747.47;;;8.61;61.51
40992;BME280;29633;49.168;9.848;2023-04-20T01:33:29;96741.50;;;8.61;61.18
40992;BME280;29633;49.168;9.848;2023-04-20T01:35:55;96734.09;;;8.56;61.14
40992;BME280;29633;49.168;9.848;2023-04-20T01:38:21;96721.16;;;8.56;61.41
40992;BME280;29633;49.168;9.848;2023-04-20T01:40:47;96729.50;;;8.60;61.33
40992;BME280;29633;49.168;9.848;2023-04-20T01:43:14;96727.97;;;8.57;61.34
40992;BME280;29633;49.168;9.848;2023-04-20T01:45:39;96724.69;;;8.55;61.45
40992;BME280;29633;49.168;9.848;2023-04-20T01:48:05;96722.91;;;8.56;61.38
40992;BME280;29633;49.168;9.848;2023-04-20T01:50:31;96717.66;;;8.57;61.36
40992;BME280;29633;49.168;9.848;2023-04-20T01:52:56;96715.88;;;8.58;61.28
40992;BME280;29633;49.168;9.848;2023-04-20T01:55:22;96715.88;;;8.58;61.45
40992;BME280;29633;49.168;9.848;2023-04-20T01:57:47;96706.25;;;8.60;61.26
40992;BME280;29633;49.168;9.848;2023-04-20T02:00:14;96710.50;;;8.61;61.29
40992;BME280;29633;49.168;9.848;2023-04-20T02:02:40;96712.94;;;8.62;61.18
40992;BME280;29633;49.168;9.848;2023-04-20T02:05:06;96706.72;;;8.65;61.18
40992;BME280;29633;49.168;9.848;2023-04-20T02:07:32;96702.16;;;8.68;61.39
40992;BME280;29633;49.168;9.848;2023-04-20T02:09:57;96699.56;;;8.68;61.34
40992;BME280;29633;49.168;9.848;2023-04-20T02:12:23;96703.72;;;8.71;61.40
40992;BME280;29633;49.168;9.848;2023-04-20T02:14:49;96694.91;;;8.73;61.32
40992;BME280;29633;49.168;9.848;2023-04-20T02:17:14;96698.41;;;8.72;61.60
40992;BME280;29633;49.168;9.848;2023-04-20T02:19:40;96699.38;;;8.71;61.43
40992;BME280;29633;49.168;9.848;2023-04-20T02:22:06;96700.16;;;8.72;61.68
40992;BME280;29633;49.168;9.848;2023-04-20T02:24:31;96698.31;;;8.74;61.38
40992;BME280;29633;49.168;9.848;2023-04-20T02:26:57;96690.44;;;8.75;61.35
40992;BME280;29633;49.168;9.848;2023-04-20T02:29:23;96694.91;;;8.73;61.38
40992;BME280;29633;49.168;9.848;2023-04-20T02:31:49;96691.59;;;8.60;61.69
40992;BME280;29633;49.168;9.848;2023-04-20T02:34:15;96694.59;;;8.54;61.80
40992;BME280;29633;49.168;9.848;2023-04-20T02:36:40;96681.59;;;8.56;61.69
40992;BME280;29633;49.168;9.848;2023-04-20T02:39:06;96689.44;;;8.54;61.72
40992;BME280;29633;49.168;9.848;2023-04-20T02:41:32;96682.50;;;8.55;61.68
40992;BME280;29633;49.168;9.848;2023-04-20T02:43:57;96673.00;;;8.55;61.78
40992;BME280;29633;49.168;9.848;2023-04-20T02:46:23;96671.16;;;8.57;61.80
40992;BME280;29633;49.168;9.848;2023-04-20T02:48:48;96671.16;;;8.57;61.64
40992;BME280;29633;49.168;9.848;2023-04-20T02:51:14;96666.69;;;8.59;61.76
40992;BME280;29633;49.168;9.848;2023-04-20T02:53:40;96665.75;;;8.60;61.74
40992;BME280;29633;49.168;9.848;2023-04-20T02:56:06;96667.59;;;8.58;61.76
40992;BME280;29633;49.168;9.848;2023-04-20T02:58:31;96660.81;;;8.57;61.86
40992;BME280;29633;49.168;9.848;2023-04-20T03:01:00;96658.22;;;8.57;61.76
40992;BME280;29633;49.168;9.848;2023-04-20T03:03:29;96649.75;;;8.55;61.71
40992;BME280;29633;49.168;9.848;2023-04-20T03:05:55;96649.84;;;8.54;61.70
40992;BME280;29633;49.168;9.848;2023-04-20T03:08:21;96645.75;;;8.51;61.73
40992;BME280;29633;49.168;9.848;2023-04-20T03:10:47;96649.25;;;8.50;61.90
40992;BME280;29633;49.168;9.848;2023-04-20T03:13:13;96650.22;;;8.49;61.79
40992;BME280;29633;49.168;9.848;2023-04-20T03:15:39;96640.56;;;8.51;61.86
40992;BME280;29633;49.168;9.848;2023-04-20T03:18:05;96633.66;;;8.52;61.73
40992;BME280;29633;49.168;9.848;2023-04-20T03:20:31;96631.91;;;8.52;61.73
40992;BME280;29633;49.168;9.848;2023-04-20T03:22:57;96625.06;;;8.51;61.80
40992;BME280;29633;49.168;9.848;2023-04-20T03:25:25;96630.47;;;8.48;61.92
40992;BME280;29633;49.168;9.848;2023-04-20T03:27:50;96633.06;;;8.48;61.78
40992;BME280;29633;49.168;9.848;2023-04-20T03:30:16;96630.47;;;8.48;61.90
40992;BME280;29633;49.168;9.848;2023-04-20T03:32:42;96625.31;;;8.48;61.70
40992;BME280;29633;49.168;9.848;2023-04-20T03:35:07;96620.13;;;8.48;61.74
40992;BME280;29633;49.168;9.848;2023-04-20T03:37:35;96616.72;;;8.48;61.68
40992;BME280;29633;49.168;9.848;2023-04-20T03:40:01;96624.63;;;8.46;61.91
40992;BME280;29633;49.168;9.848;2023-04-20T03:42:27;96631.41;;;8.47;61.78
40992;BME280;29633;49.168;9.848;2023-04-20T03:44:54;96632.38;;;8.46;61.80
40992;BME280;29633;49.168;9.848;2023-04-20T03:47:20;96620.38;;;8.45;61.83
40992;BME280;29633;49.168;9.848;2023-04-20T03:49:45;96627.28;;;8.45;61.75
40992;BME280;29633;49.168;9.848;2023-04-20T03:52:11;96629.78;;;8.46;61.92
40992;BME280;29633;49.168;9.848;2023-04-20T03:54:37;96625.78;;;8.42;61.71
40992;BME280;29633;49.168;9.848;2023-04-20T03:57:02;96630.13;;;8.42;61.79
40992;BME280;29633;49.168;9.848;2023-04-20T03:59:28;96637.25;;;8.38;61.90
40992;BME280;29633;49.168;9.848;2023-04-20T04:01:54;96639.03;;;8.37;61.79
40992;BME280;29633;49.168;9.848;2023-04-20T04:04:19;96629.50;;;8.38;61.90
40992;BME280;29633;49.168;9.848;2023-04-20T04:06:45;96628.69;;;8.37;61.74
40992;BME280;29633;49.168;9.848;2023-04-20T04:09:13;96635.38;;;8.40;61.91
40992;BME280;29633;49.168;9.848;2023-04-20T04:11:38;96632.78;;;8.40;61.77
40992;BME280;29633;49.168;9.848;2023-04-20T04:14:04;96641.38;;;8.40;61.78
40992;BME280;29633;49.168;9.848;2023-04-20T04:16:33;96637.03;;;8.41;61.97
40992;BME280;29633;49.168;9.848;2023-04-20T04:18:58;96624.94;;;8.42;61.75
40992;BME280;29633;49.168;9.848;2023-04-20T04:21:24;96621.44;;;8.43;61.91
40992;BME280;29633;49.168;9.848;2023-04-20T04:23:50;96633.53;;;8.42;61.84
40992;BME280;29633;49.168;9.848;2023-04-20T04:26:15;96619.19;;;8.38;61.69
40992;BME280;29633;49.168;9.848;2023-04-20T04:28:43;96629.50;;;8.38;61.83
40992;BME280;29633;49.168;9.848;2023-04-20T04:31:10;96624.34;;;8.38;61.77
40992;BME280;29633;49.168;9.848;2023-04-20T04:33:36;96625.19;;;8.38;61.77
40992;BME280;29633;49.168;9.848;2023-04-20T04:36:03;96619.06;;;8.39;61.64
40992;BME280;29633;49.168;9.848;2023-04-20T04:38:29;96619.06;;;8.39;61.66
40992;BME280;29633;49.168;9.848;2023-04-20T04:40:55;96615.78;;;8.37;61.66
40992;BME280;29633;49.168;9.848;2023-04-20T04:43:21;96613.88;;;8.39;61.72
40992;BME280;29633;49.168;9.848;2023-04-20T04:45:48;96617.31;;;8.40;61.77
40992;BME280;29633;49.168;9.848;2023-04-20T04:48:16;96609.69;;;8.38;61.83
40992;BME280;29633;49.168;9.848;2023-04-20T04:50:42;96610.50;;;8.39;61.67
40992;BME280;29633;49.168;9.848;2023-04-20T04:53:07;96608.72;;;8.39;61.69
40992;BME280;29633;49.168;9.848;2023-04-20T04:55:33;96607.78;;;8.40;61.73
40992;BME280;29633;49.168;9.848;2023-04-20T04:57:59;96597.47;;;8.40;61.56
40992;BME280;29633;49.168;9.848;2023-04-20T05:00:26;96603.34;;;8.43;61.86
40992;BME280;29633;49.168;9.848;2023-04-20T05:02:52;96599.22;;;8.40;61.65
40992;BME280;29633;49.168;9.848;2023-04-20T05:05:18;96610.28;;;8.42;61.63
40992;BME280;29633;49.168;9.848;2023-04-20T05:07:44;96605.94;;;8.43;61.77
40992;BME280;29633;49.168;9.848;2023-04-20T05:10:10;96607.56;;;8.44;61.78
40992;BME280;29633;49.168;9.848;2023-04-20T05:12:36;96606.63;;;8.45;61.72
40992;BME280;29633;49.168;9.848;2023-04-20T05:15:02;96612.28;;;8.50;61.68
40992;BME280;29633;49.168;9.848;2023-04-20T05:17:28;96608.75;;;8.51;61.64
40992;BME280;29633;49.168;9.848;2023-04-20T05:19:53;96611.94;;;8.54;61.70
40992;BME280;29633;49.168;9.848;2023-04-20T05:22:19;96619.25;;;8.60;61.87
40992;BME280;29633;49.168;9.848;2023-04-20T05:24:45;96625.00;;;8.64;61.65
40992;BME280;29633;49.168;9.848;2023-04-20T05:27:11;96626.28;;;8.69;61.63
40992;BME280;29633;49.168;9.848;2023-04-20T05:29:37;96619.13;;;8.73;61.63
40992;BME280;29633;49.168;9.848;2023-04-20T05:32:03;96616.19;;;8.77;61.75
40992;BME280;29633;49.168;9.848;2023-04-20T05:34:31;96620.91;;;8.83;61.72
40992;BME280;29633;49.168;9.848;2023-04-20T05:36:57;96619.03;;;8.85;61.71
40992;BME280;29633;49.168;9.848;2023-04-20T05:39:23;96618.56;;;8.92;61.70
40992;BME280;29633;49.168;9.848;2023-04-20T05:41:49;96613.97;;;8.95;61.79
40992;BME280;29633;49.168;9.848;2023-04-20T05:44:14;96611.88;;;9.00;61.77
40992;BME280;29633;49.168;9.848;2023-04-20T05:46:40;96623.50;;;9.06;61.79
40992;BME280;29633;49.168;9.848;2023-04-20T05:49:06;96621.41;;;9.11;61.87
40992;BME280;29633;49.168;9.848;2023-04-20T05:51:32;96620.09;;;9.16;62.03
40992;BME280;29633;49.168;9.848;2023-04-20T05:54:02;96619.50;;;9.24;61.99
40992;BME280;29633;49.168;9.848;2023-04-20T05:56:28;96622.56;;;9.29;62.10
40992;BME280;29633;49.168;9.848;2023-04-20T05:58:54;96619.38;;;9.36;62.10
40992;BME280;29633;49.168;9.848;2023-04-20T06:01:20;96620.41;;;9.45;62.11
40992;BME280;29633;49.168;9.848;2023-04-20T06:03:48;96619.00;;;9.52;61.92
40992;BME280;29633;49.168;9.848;2023-04-20T06:06:14;96619.22;;;9.60;61.96
40992;BME280;29633;49.168;9.848;2023-04-20T06:08:40;96615.91;;;9.69;62.00
40992;BME280;29633;49.168;9.848;2023-04-20T06:11:06;96616.09;;;9.77;61.99
40992;BME280;29633;49.168;9.848;2023-04-20T06:13:32;96616.22;;;9.87;61.98
40992;BME280;29633;49.168;9.848;2023-04-20T06:15:57;96611.22;;;9.95;61.97
40992;BME280;29633;49.168;9.848;2023-04-20T06:18:23;96619.19;;;10.03;62.11
40992;BME280;29633;49.168;9.848;2023-04-20T06:20:48;96616.00;;;10.11;62.01
40992;BME280;29633;49.168;9.848;2023-04-20T06:23:14;96613.66;;;10.19;61.91
40992;BME280;29633;49.168;9.848;2023-04-20T06:25:40;96617.50;;;10.24;62.23
40992;BME280;29633;49.168;9.848;2023-04-20T06:28:06;96608.41;;;10.30;62.13
40992;BME280;29633;49.168;9.848;2023-04-20T06:30:33;96611.22;;;10.38;62.02
40992;BME280;29633;49.168;9.848;2023-04-20T06:32:59;96603.59;;;10.46;61.94
40992;BME280;29633;49.168;9.848;2023-04-20T06:35:25;96604.75;;;10.53;62.12
40992;BME280;29633;49.168;9.848;2023-04-20T06:37:53;96608.34;;;10.62;61.96
40992;BME280;29633;49.168;9.848;2023-04-20T06:40:22;96605.38;;;10.66;62.08
40992;BME280;29633;49.168;9.848;2023-04-20T06:42:48;96604.88;;;10.72;62.12
40992;BME280;29633;49.168;9.848;2023-04-20T06:45:13;96593.75;;;10.81;62.07
40992;BME280;29633;49.168;9.848;2023-04-20T06:47:39;96595.53;;;10.91;62.13
40992;BME280;29633;49.168;9.848;2023-04-20T06:50:06;96595.72;;;10.99;62.24
40992;BME280;29633;49.168;9.848;2023-04-20T06:52:37;96597.53;;;11.08;62.31
40992;BME280;29633;49.168;9.848;2023-04-20T06:55:04;96598.38;;;11.18;62.05
40992;BME280;29633;49.168;9.848;2023-04-20T06:57:29;96598.53;;;11.26;62.11
40992;BME280;29633;49.168;9.848;2023-04-20T06:59:55;96595.44;;;11.32;62.25
40992;BME280;29633;49.168;9.848;2023-04-20T07:02:21;96599.81;;;11.41;62.06
40992;BME280;29633;49.168;9.848;2023-04-20T07:04:46;96595.63;;;11.50;62.31
40992;BME280;29633;49.168;9.848;2023-04-20T07:07:12;96591.28;;;11.60;62.24
40992;BME280;29633;49.168;9.848;2023-04-20T07:09:37;96594.81;;;11.68;62.11
40992;BME280;29633;49.168;9.848;2023-04-20T07:12:03;96590.50;;;11.78;62.41
40992;BME280;29633;49.168;9.848;2023-04-20T07:14:29;96588.75;;;11.89;62.12
40992;BME280;29633;49.168;9.848;2023-04-20T07:16:54;96593.94;;;11.98;62.19
40992;BME280;29633;49.168;9.848;2023-04-20T07:19:20;96588.06;;;12.06;62.10
40992;BME280;29633;49.168;9.848;2023-04-20T07:21:46;96583.97;;;12.13;62.23
40992;BME280;29633;49.168;9.848;2023-04-20T07:24:11;96582.59;;;12.18;62.16
40992;BME280;29633;49.168;9.848;2023-04-20T07:26:37;96588.47;;;12.20;62.39
40992;BME280;29633;49.168;9.848;2023-04-20T07:29:05;96598.31;;;12.26;62.42
40992;BME280;29633;49.168;9.848;2023-04-20T07:31:30;96594.19;;;12.33;62.36
40992;BME280;29633;49.168;9.848;2023-04-20T07:33:56;96589.28;;;12.40;62.32
40992;BME280;29633;49.168;9.848;2023-04-20T07:36:22;96595.16;;;12.42;62.35
40992;BME280;29633;49.168;9.848;2023-04-20T07:38:48;96594.22;;;12.43;62.46
40992;BME280;29633;49.168;9.848;2023-04-20T07:41:14;96590.22;;;12.49;62.48
40992;BME280;29633;49.168;9.848;2023-04-20T07:43:40;96583.66;;;12.54;62.35
40992;BME280;29633;49.168;9.848;2023-04-20T07:46:06;96586.50;;;12.61;62.60
40992;BME280;29633;49.168;9.848;2023-04-20T07:48:35;96589.38;;;12.67;62.39
40992;BME280;29633;49.168;9.848;2023-04-20T07:51:01;96583.06;;;12.70;62.50
40992;BME280;29633;49.168;9.848;2023-04-20T07:53:30;96579.75;;;12.77;62.37
40992;BME280;29633;49.168;9.848;2023-04-20T07:55:55;96590.81;;;12.89;62.27
40992;BME280;29633;49.168;9.848;2023-04-20T07:58:21;96583.66;;;13.01;62.26
40992;BME280;29633;49.168;9.848;2023-04-20T08:00:47;96589.38;;;13.14;62.26
40992;BME280;29633;49.168;9.848;2023-04-20T08:03:13;96590.84;;;13.26;62.13
40992;BME280;29633;49.168;9.848;2023-04-20T08:05:39;96594.22;;;13.36;62.06
40992;BME280;29633;49.168;9.848;2023-04-20T08:08:05;96582.78;;;13.47;62.19
40992;BME280;29633;49.168;9.848;2023-04-20T08:10:31;96592.34;;;13.56;61.98
40992;BME280;29633;49.168;9.848;2023-04-20T08:12:57;96585.28;;;13.66;62.15
40992;BME280;29633;49.168;9.848;2023-04-20T08:15:23;96593.84;;;13.76;62.00
40992;BME280;29633;49.168;9.848;2023-04-20T08:17:49;96585.31;;;13.84;62.09
40992;BME280;29633;49.168;9.848;2023-04-20T08:20:15;96581.28;;;13.89;62.22
40992;BME280;29633;49.168;9.848;2023-04-20T08:22:40;96575.94;;;13.91;62.24
40992;BME280;29633;49.168;9.848;2023-04-20T08:25:06;96580.69;;;13.95;62.13
40992;BME280;29633;49.168;9.848;2023-04-20T08:27:32;96575.72;;;14.02;62.25
40992;BME280;29633;49.168;9.848;2023-04-20T08:29:58;96580.63;;;14.05;62.02
40992;BME280;29633;49.168;9.848;2023-04-20T08:32:23;96583.41;;;14.03;62.27
40992;BME280;29633;49.168;9.848;2023-04-20T08:34:51;96576.53;;;14.02;62.33
40992;BME280;29633;49.168;9.848;2023-04-20T08:37:17;96577.34;;;14.03;62.22
40992;BME280;29633;49.168;9.848;2023-04-20T08:39:43;96592.69;;;14.06;62.17
40992;BME280;29633;49.168;9.848;2023-04-20T08:42:09;96584.34;;;14.02;62.30
40992;BME280;29633;49.168;9.848;2023-04-20T08:44:35;96585.75;;;13.97;62.23
40992;BME280;29633;49.168;9.848;2023-04-20T08:47:00;96587.69;;;13.95;62.30
40992;BME280;29633;49.168;9.848;2023-04-20T08:49:27;96592.22;;;13.93;62.26
40992;BME280;29633;49.168;9.848;2023-04-20T08:51:56;96587.47;;;13.88;62.31
40992;BME280;29633;49.168;9.848;2023-04-20T08:54:21;96597.06;;;13.88;62.36
40992;BME280;29633;49.168;9.848;2023-04-20T08:56:47;96596.13;;;13.89;62.40
40992;BME280;29633;49.168;9.848;2023-04-20T08:59:14;96589.91;;;13.90;62.38
40992;BME280;29633;49.168;9.848;2023-04-20T09:01:40;96596.13;;;13.89;62.39
40992;BME280;29633;49.168;9.848;2023-04-20T09:04:17;96593.88;;;13.94;62.23
40992;BME280;29633;49.168;9.848;2023-04-20T09:06:44;96598.94;;;13.95;62.17
40992;BME280;29633;49.168;9.848;2023-04-20T09:09:10;96594.38;;;13.97;62.24
40992;BME280;29633;49.168;9.848;2023-04-20T09:11:36;96595.22;;;13.98;62.18
40992;BME280;29633;49.168;9.848;2023-04-20T09:14:08;96596.56;;;14.02;62.28
40992;BME280;29633;49.168;9.848;2023-04-20T09:16:47;96592.69;;;14.06;62.13
40992;BME280;29633;49.168;9.848;2023-04-20T09:19:13;96592.38;;;14.09;62.30
40992;BME280;29633;49.168;9.848;2023-04-20T09:21:47;96596.03;;;14.16;62.02
40992;BME280;29633;49.168;9.848;2023-04-20T09:24:13;96588.66;;;14.11;62.21
40992;BME280;29633;49.168;9.848;2023-04-20T09:26:39;96587.69;;;14.12;62.20
40992;BME280;29633;49.168;9.848;2023-04-20T09:29:18;96583.31;;;14.13;62.20
40992;BME280;29633;49.168;9.848;2023-04-20T09:31:44;96586.66;;;14.05;62.02
40992;BME280;29633;49.168;9.848;2023-04-20T09:34:09;96583.81;;;13.99;62.26
40992;BME280;29633;49.168;9.848;2023-04-20T09:36:46;96584.56;;;13.91;62.33
40992;BME280;29633;49.168;9.848;2023-04-20T09:39:13;96582.78;;;13.92;62.15
40992;BME280;29633;49.168;9.848;2023-04-20T09:41:40;96585.91;;;13.95;62.31
40992;BME280;29633;49.168;9.848;2023-04-20T09:44:07;96588.81;;;13.92;62.09
40992;BME280;29633;49.168;9.848;2023-04-20T09:46:34;96583.75;;;13.91;62.10
40992;BME280;29633;49.168;9.848;2023-04-20T09:49:03;96580.47;;;13.89;62.30
40992;BME280;29633;49.168;9.848;2023-04-20T09:51:31;96579.66;;;13.88;62.20
40992;BME280;29633;49.168;9.848;2023-04-20T09:53:59;96577.88;;;13.89;62.33
40992;BME280;29633;49.168;9.848;2023-04-20T09:56:26;96575.28;;;13.89;62.15
40992;BME280;29633;49.168;9.848;2023-04-20T09:58:55;96582.09;;;13.90;62.33
40992;BME280;29633;49.168;9.848;2023-04-20T10:01:21;96577.34;;;13.85;62.02
40992;BME280;29633;49.168;9.848;2023-04-20T10:03:47;96581.75;;;13.85;62.34
40992;BME280;29633;49.168;9.848;2023-04-20T10:06:24;96568.72;;;13.85;62.32
40992;BME280;29633;49.168;9.848;2023-04-20T10:08:51;96557.59;;;13.82;62.15
40992;BME280;29633;49.168;9.848;2023-04-20T10:11:35;96560.44;;;13.89;62.15
40992;BME280;29633;49.168;9.848;2023-04-20T10:16:41;96549.72;;;13.92;62.09
40992;BME280;29633;49.168;9.848;2023-04-20T10:19:07;96539.13;;;13.94;62.10
40992;BME280;29633;49.168;9.848;2023-04-20T10:21:32;96538.69;;;13.98;62.03
40992;BME280;29633;49.168;9.848;2023-04-20T10:24:08;96528.50;;;14.05;62.07
40992;BME280;29633;49.168;9.848;2023-04-20T10:26:44;96520.06;;;14.11;62.18
40992;BME280;29633;49.168;9.848;2023-04-20T10:29:21;96514.41;;;14.15;62.16
40992;BME280;29633;49.168;9.848;2023-04-20T10:31:47;96511.03;;;14.23;62.10
40992;BME280;29633;49.168;9.848;2023-04-20T10:34:13;96511.25;;;14.29;62.09
40992;BME280;29633;49.168;9.848;2023-04-20T10:36:38;96508.88;;;14.36;62.07
40992;BME280;29633;49.168;9.848;2023-04-20T10:39:15;96505.34;;;14.45;62.06
40992;BME280;29633;49.168;9.848;2023-04-20T10:41:51;96505.72;;;14.50;62.05
40992;BME280;29633;49.168;9.848;2023-04-20T10:44:17;96513.59;;;14.58;62.05
40992;BME280;29633;49.168;9.848;2023-04-20T10:46:49;96512.81;;;14.66;61.88
40992;BME280;29633;49.168;9.848;2023-04-20T10:49:15;96516.75;;;14.70;61.93
40992;BME280;29633;49.168;9.848;2023-04-20T10:51:51;96504.22;;;14.73;62.12
40992;BME280;29633;49.168;9.848;2023-04-20T10:54:17;96506.69;;;14.75;61.84
40992;BME280;29633;49.168;9.848;2023-04-20T10:59:11;96503.75;;;14.78;61.91
40992;BME280;29633;49.168;9.848;2023-04-20T11:01:37;96497.72;;;14.77;62.17
40992;BME280;29633;49.168;9.848;2023-04-20T11:04:03;96493.78;;;14.73;62.08
40992;BME280;29633;49.168;9.848;2023-04-20T11:06:32;96492.81;;;14.74;61.89
40992;BME280;29633;49.168;9.848;2023-04-20T11:08:58;96481.56;;;14.74;62.01
40992;BME280;29633;49.168;9.848;2023-04-20T11:11:25;96476.34;;;14.74;61.92
40992;BME280;29633;49.168;9.848;2023-04-20T11:14:07;96475.88;;;14.78;61.78
40992;BME280;29633;49.168;9.848;2023-04-20T11:16:34;96467.41;;;14.85;61.80
40992;BME280;29633;49.168;9.848;2023-04-20T11:19:00;96459.13;;;14.89;61.71
40992;BME280;29633;49.168;9.848;2023-04-20T11:21:39;96457.00;;;14.93;61.74
40992;BME280;29633;49.168;9.848;2023-04-20T11:24:15;96462.22;;;14.93;61.73
40992;BME280;29633;49.168;9.848;2023-04-20T11:26:42;96458.66;;;14.94;61.80
40992;BME280;29633;49.168;9.848;2023-04-20T11:29:08;96455.03;;;14.95;61.71
40992;BME280;29633;49.168;9.848;2023-04-20T11:31:34;96448.53;;;14.99;61.72
40992;BME280;29633;49.168;9.848;2023-04-20T11:33:59;96450.31;;;14.98;61.70
40992;BME280;29633;49.168;9.848;2023-04-20T11:36:26;96443.81;;;15.02;61.58
40992;BME280;29633;49.168;9.848;2023-04-20T11:38:54;96442.53;;;15.06;61.66
40992;BME280;29633;49.168;9.848;2023-04-20T11:41:20;96443.34;;;15.07;61.63
40992;BME280;29633;49.168;9.848;2023-04-20T11:43:46;96440.59;;;15.08;61.66
40992;BME280;29633;49.168;9.848;2023-04-20T11:46:19;96443.34;;;15.07;61.65
40992;BME280;29633;49.168;9.848;2023-04-20T11:48:46;96440.06;;;15.05;61.66
40992;BME280;29633;49.168;9.848;2023-04-20T11:51:12;96439.06;;;14.98;61.66
40992;BME280;29633;49.168;9.848;2023-04-20T11:53:38;96433.84;;;14.98;61.92
40992;BME280;29633;49.168;9.848;2023-04-20T11:56:04;96432.38;;;14.95;61.72
40992;BME280;29633;49.168;9.848;2023-04-20T11:58:30;96425.69;;;14.93;61.53
40992;BME280;29633;49.168;9.848;2023-04-20T12:00:56;96428.94;;;14.87;61.45
40992;BME280;29633;49.168;9.848;2023-04-20T12:03:21;96429.22;;;14.84;61.46
40992;BME280;29633;49.168;9.848;2023-04-20T12:05:47;96438.56;;;14.86;61.27
40992;BME280;29633;49.168;9.848;2023-04-20T12:08:12;96441.31;;;14.85;61.33
40992;BME280;29633;49.168;9.848;2023-04-20T12:10:38;96446.84;;;14.82;61.30
40992;BME280;29633;49.168;9.848;2023-04-20T12:13:07;96451.72;;;14.76;61.27
40992;BME280;29633;49.168;9.848;2023-04-20T12:15:32;96446.31;;;14.70;61.29
40992;BME280;29633;49.168;9.848;2023-04-20T12:17:58;96441.56;;;14.65;61.34
40992;BME280;29633;49.168;9.848;2023-04-20T12:20:23;96457.53;;;14.62;61.15
40992;BME280;29633;49.168;9.848;2023-04-20T12:22:49;96450.31;;;14.56;61.31
40992;BME280;29633;49.168;9.848;2023-04-20T12:25:15;96452.25;;;14.54;61.09
40992;BME280;29633;49.168;9.848;2023-04-20T12:27:40;96455.84;;;14.53;61.13
40992;BME280;29633;49.168;9.848;2023-04-20T12:30:06;96449.31;;;14.49;61.10
40992;BME280;29633;49.168;9.848;2023-04-20T12:32:34;96457.13;;;14.49;61.21
40992;BME280;29633;49.168;9.848;2023-04-20T12:34:59;96462.34;;;14.49;60.99
40992;BME280;29633;49.168;9.848;2023-04-20T12:37:25;96460.88;;;14.47;60.94
40992;BME280;29633;49.168;9.848;2023-04-20T12:39:51;96464.44;;;14.46;61.11
40992;BME280;29633;49.168;9.848;2023-04-20T12:42:17;96464.59;;;14.44;61.03
40992;BME280;29633;49.168;9.848;2023-04-20T12:44:43;96468.47;;;14.40;61.04
40992;BME280;29633;49.168;9.848;2023-04-20T12:47:09;96463.25;;;14.40;60.97
40992;BME280;29633;49.168;9.848;2023-04-20T12:49:35;96458.03;;;14.40;61.10
40992;BME280;29633;49.168;9.848;2023-04-20T12:52:00;96464.91;;;14.41;61.05
40992;BME280;29633;49.168;9.848;2023-04-20T12:54:26;96465.22;;;14.38;60.98
40992;BME280;29633;49.168;9.848;2023-04-20T12:56:51;96467.31;;;14.35;61.01
40992;BME280;29633;49.168;9.848;2023-04-20T12:59:17;96467.59;;;14.32;61.09
40992;BME280;29633;49.168;9.848;2023-04-20T13:01:43;96465.44;;;14.27;61.03
40992;BME280;29633;49.168;9.848;2023-04-20T13:04:08;96468.19;;;14.25;60.93
40992;BME280;29633;49.168;9.848;2023-04-20T13:06:34;96462.47;;;14.22;61.00